sensor_id;sensor_type;location;lat;lon;timestamp;P1;durP1;ratioP1;P2;durP2;ratioP2
75429;SDS011;64127;51.488;5.462;2023-07-29T00:02:18;4.67;;;3.40;;
75429;SDS011;64127;51.488;5.462;2023-07-29T00:04:50;3.40;;;3.10;;
75429;SDS011;64127;51.488;5.462;2023-07-29T00:07:22;3.30;;;3.10;;
75429;SDS011;64127;51.488;5.462;2023-07-29T00:09:54;3.37;;;3.10;;
75429;SDS011;64127;51.488;5.462;2023-07-29T00:12:26;4.37;;;3.43;;
75429;SDS011;64127;51.488;5.462;2023-07-29T00:14:58;3.50;;;3.20;;
75429;SDS011;64127;51.488;5.462;2023-07-29T00:17:30;4.60;;;3.10;;
75429;SDS011;64127;51.488;5.462;2023-07-29T00:20:02;4.67;;;3.33;;
75429;SDS011;64127;51.488;5.462;2023-07-29T00:22:39;3.47;;;3.07;;
75429;SDS011;64127;51.488;5.462;2023-07-29T00:25:11;3.43;;;3.13;;
75429;SDS011;64127;51.488;5.462;2023-07-29T00:27:43;3.30;;;3.00;;
75429;SDS011;64127;51.488;5.462;2023-07-29T00:30:15;3.63;;;3.27;;
75429;SDS011;64127;51.488;5.462;2023-07-29T00:32:47;3.17;;;2.87;;
75429;SDS011;64127;51.488;5.462;2023-07-29T00:35:19;4.47;;;3.60;;
75429;SDS011;64127;51.488;5.462;2023-07-29T00:37:51;4.37;;;3.57;;
75429;SDS011;64127;51.488;5.462;2023-07-29T00:40:23;4.10;;;3.70;;
75429;SDS011;64127;51.488;5.462;2023-07-29T00:42:58;3.90;;;3.60;;
75429;SDS011;64127;51.488;5.462;2023-07-29T00:45:30;4.03;;;3.73;;
75429;SDS011;64127;51.488;5.462;2023-07-29T00:48:04;3.83;;;3.50;;
75429;SDS011;64127;51.488;5.462;2023-07-29T00:50:36;4.20;;;3.80;;
75429;SDS011;64127;51.488;5.462;2023-07-29T00:53:09;3.70;;;3.40;;
75429;SDS011;64127;51.488;5.462;2023-07-29T00:55:41;4.73;;;3.53;;
75429;SDS011;64127;51.488;5.462;2023-07-29T00:58:14;5.10;;;3.83;;
75429;SDS011;64127;51.488;5.462;2023-07-29T01:00:46;3.60;;;3.30;;
75429;SDS011;64127;51.488;5.462;2023-07-29T01:03:19;4.67;;;3.50;;
75429;SDS011;64127;51.488;5.462;2023-07-29T01:06:07;4.13;;;3.73;;
75429;SDS011;64127;51.488;5.462;2023-07-29T01:08:59;4.10;;;3.70;;
75429;SDS011;64127;51.488;5.462;2023-07-29T01:11:38;4.93;;;3.60;;
75429;SDS011;64127;51.488;5.462;2023-07-29T01:14:38;4.77;;;4.00;;
75429;SDS011;64127;51.488;5.462;2023-07-29T01:17:33;4.20;;;3.90;;
75429;SDS011;64127;51.488;5.462;2023-07-29T01:20:14;3.97;;;3.67;;
75429;SDS011;64127;51.488;5.462;2023-07-29T01:22:48;4.10;;;3.70;;
75429;SDS011;64127;51.488;5.462;2023-07-29T01:25:20;4.60;;;3.83;;
75429;SDS011;64127;51.488;5.462;2023-07-29T01:27:52;4.00;;;3.70;;
75429;SDS011;64127;51.488;5.462;2023-07-29T01:30:36;4.00;;;3.70;;
75429;SDS011;64127;51.488;5.462;2023-07-29T01:33:19;4.10;;;3.80;;
75429;SDS011;64127;51.488;5.462;2023-07-29T01:35:58;4.67;;;3.90;;
75429;SDS011;64127;51.488;5.462;2023-07-29T01:38:37;4.30;;;4.00;;
75429;SDS011;64127;51.488;5.462;2023-07-29T01:41:12;4.20;;;3.87;;
75429;SDS011;64127;51.488;5.462;2023-07-29T01:43:46;5.33;;;4.20;;
75429;SDS011;64127;51.488;5.462;2023-07-29T01:46:18;4.73;;;4.33;;
75429;SDS011;64127;51.488;5.462;2023-07-29T01:48:51;4.20;;;3.90;;
75429;SDS011;64127;51.488;5.462;2023-07-29T01:51:23;4.33;;;3.90;;
75429;SDS011;64127;51.488;5.462;2023-07-29T01:53:55;4.10;;;3.70;;
75429;SDS011;64127;51.488;5.462;2023-07-29T01:56:27;4.67;;;3.77;;
75429;SDS011;64127;51.488;5.462;2023-07-29T01:58:59;4.50;;;4.07;;
75429;SDS011;64127;51.488;5.462;2023-07-29T02:01:31;4.03;;;3.63;;
75429;SDS011;64127;51.488;5.462;2023-07-29T02:04:03;4.00;;;3.43;;
75429;SDS011;64127;51.488;5.462;2023-07-29T02:06:35;4.43;;;3.73;;
75429;SDS011;64127;51.488;5.462;2023-07-29T02:09:09;3.93;;;3.47;;
75429;SDS011;64127;51.488;5.462;2023-07-29T02:11:41;4.17;;;3.40;;
75429;SDS011;64127;51.488;5.462;2023-07-29T02:14:13;3.67;;;3.30;;
75429;SDS011;64127;51.488;5.462;2023-07-29T02:16:45;4.00;;;3.60;;
75429;SDS011;64127;51.488;5.462;2023-07-29T02:19:17;3.60;;;3.13;;
75429;SDS011;64127;51.488;5.462;2023-07-29T02:21:49;3.60;;;3.23;;
75429;SDS011;64127;51.488;5.462;2023-07-29T02:24:21;3.40;;;3.10;;
75429;SDS011;64127;51.488;5.462;2023-07-29T02:26:53;4.07;;;3.33;;
75429;SDS011;64127;51.488;5.462;2023-07-29T02:29:25;3.57;;;3.10;;
75429;SDS011;64127;51.488;5.462;2023-07-29T02:31:57;3.43;;;3.13;;
75429;SDS011;64127;51.488;5.462;2023-07-29T02:34:30;4.53;;;2.97;;
75429;SDS011;64127;51.488;5.462;2023-07-29T02:37:02;4.07;;;2.90;;
75429;SDS011;64127;51.488;5.462;2023-07-29T02:39:34;3.37;;;3.17;;
75429;SDS011;64127;51.488;5.462;2023-07-29T02:42:06;2.83;;;2.63;;
75429;SDS011;64127;51.488;5.462;2023-07-29T02:44:39;4.40;;;2.87;;
75429;SDS011;64127;51.488;5.462;2023-07-29T02:47:12;2.87;;;2.67;;
75429;SDS011;64127;51.488;5.462;2023-07-29T02:50:02;3.30;;;3.10;;
75429;SDS011;64127;51.488;5.462;2023-07-29T02:52:34;3.23;;;2.80;;
75429;SDS011;64127;51.488;5.462;2023-07-29T02:55:06;3.00;;;2.80;;
75429;SDS011;64127;51.488;5.462;2023-07-29T02:57:38;3.47;;;3.17;;
75429;SDS011;64127;51.488;5.462;2023-07-29T03:00:10;5.07;;;3.23;;
75429;SDS011;64127;51.488;5.462;2023-07-29T03:02:43;3.30;;;3.10;;
75429;SDS011;64127;51.488;5.462;2023-07-29T03:05:15;3.60;;;3.30;;
75429;SDS011;64127;51.488;5.462;2023-07-29T03:07:48;4.17;;;3.77;;
75429;SDS011;64127;51.488;5.462;2023-07-29T03:10:20;4.20;;;3.80;;
75429;SDS011;64127;51.488;5.462;2023-07-29T03:12:55;3.73;;;3.40;;
75429;SDS011;64127;51.488;5.462;2023-07-29T03:15:27;4.17;;;3.77;;
75429;SDS011;64127;51.488;5.462;2023-07-29T03:17:59;4.37;;;3.87;;
75429;SDS011;64127;51.488;5.462;2023-07-29T03:20:31;3.30;;;3.00;;
75429;SDS011;64127;51.488;5.462;2023-07-29T03:23:03;4.00;;;3.60;;
75429;SDS011;64127;51.488;5.462;2023-07-29T03:25:35;4.10;;;3.73;;
75429;SDS011;64127;51.488;5.462;2023-07-29T03:28:07;3.93;;;3.60;;
75429;SDS011;64127;51.488;5.462;2023-07-29T03:30:39;4.20;;;3.63;;
75429;SDS011;64127;51.488;5.462;2023-07-29T03:33:11;3.57;;;3.33;;
75429;SDS011;64127;51.488;5.462;2023-07-29T03:35:43;3.90;;;3.60;;
75429;SDS011;64127;51.488;5.462;2023-07-29T03:38:16;7.60;;;3.70;;
75429;SDS011;64127;51.488;5.462;2023-07-29T03:40:48;4.23;;;3.73;;
75429;SDS011;64127;51.488;5.462;2023-07-29T03:43:20;4.93;;;3.30;;
75429;SDS011;64127;51.488;5.462;2023-07-29T03:45:52;4.27;;;3.60;;
75429;SDS011;64127;51.488;5.462;2023-07-29T03:48:24;4.57;;;3.67;;
75429;SDS011;64127;51.488;5.462;2023-07-29T03:50:56;3.63;;;3.33;;
75429;SDS011;64127;51.488;5.462;2023-07-29T03:53:28;3.40;;;3.10;;
75429;SDS011;64127;51.488;5.462;2023-07-29T03:56:00;3.57;;;3.27;;
75429;SDS011;64127;51.488;5.462;2023-07-29T03:58:32;3.93;;;3.50;;
75429;SDS011;64127;51.488;5.462;2023-07-29T04:01:04;6.50;;;3.60;;
75429;SDS011;64127;51.488;5.462;2023-07-29T04:03:37;4.10;;;3.67;;
75429;SDS011;64127;51.488;5.462;2023-07-29T04:06:09;5.43;;;3.37;;
75429;SDS011;64127;51.488;5.462;2023-07-29T04:08:41;4.53;;;4.13;;
75429;SDS011;64127;51.488;5.462;2023-07-29T04:11:13;4.27;;;3.70;;
75429;SDS011;64127;51.488;5.462;2023-07-29T04:13:45;4.78;;;3.90;;
75429;SDS011;64127;51.488;5.462;2023-07-29T04:16:17;4.13;;;3.70;;
75429;SDS011;64127;51.488;5.462;2023-07-29T04:18:49;4.83;;;3.70;;
75429;SDS011;64127;51.488;5.462;2023-07-29T04:21:21;3.80;;;3.50;;
75429;SDS011;64127;51.488;5.462;2023-07-29T04:23:53;4.30;;;3.37;;
75429;SDS011;64127;51.488;5.462;2023-07-29T04:26:25;3.77;;;3.40;;
75429;SDS011;64127;51.488;5.462;2023-07-29T04:28:57;3.67;;;3.37;;
75429;SDS011;64127;51.488;5.462;2023-07-29T04:31:29;3.40;;;3.10;;
75429;SDS011;64127;51.488;5.462;2023-07-29T04:34:01;3.53;;;3.23;;
75429;SDS011;64127;51.488;5.462;2023-07-29T04:36:34;3.57;;;3.27;;
75429;SDS011;64127;51.488;5.462;2023-07-29T04:39:06;3.00;;;2.80;;
75429;SDS011;64127;51.488;5.462;2023-07-29T04:41:39;3.97;;;3.30;;
75429;SDS011;64127;51.488;5.462;2023-07-29T04:44:11;3.40;;;3.10;;
75429;SDS011;64127;51.488;5.462;2023-07-29T04:46:43;4.20;;;2.83;;
75429;SDS011;64127;51.488;5.462;2023-07-29T04:49:15;3.37;;;3.07;;
75429;SDS011;64127;51.488;5.462;2023-07-29T04:51:47;3.77;;;3.00;;
75429;SDS011;64127;51.488;5.462;2023-07-29T04:54:19;3.60;;;3.20;;
75429;SDS011;64127;51.488;5.462;2023-07-29T04:56:52;3.20;;;3.00;;
75429;SDS011;64127;51.488;5.462;2023-07-29T04:59:24;3.07;;;2.83;;
75429;SDS011;64127;51.488;5.462;2023-07-29T05:01:56;3.23;;;2.90;;
75429;SDS011;64127;51.488;5.462;2023-07-29T05:04:28;3.30;;;2.80;;
75429;SDS011;64127;51.488;5.462;2023-07-29T05:07:00;3.00;;;2.80;;
75429;SDS011;64127;51.488;5.462;2023-07-29T05:09:32;3.23;;;2.63;;
75429;SDS011;64127;51.488;5.462;2023-07-29T05:12:04;3.17;;;2.97;;
75429;SDS011;64127;51.488;5.462;2023-07-29T05:14:37;2.97;;;2.67;;
75429;SDS011;64127;51.488;5.462;2023-07-29T05:17:09;3.67;;;3.00;;
75429;SDS011;64127;51.488;5.462;2023-07-29T05:19:41;4.23;;;2.93;;
75429;SDS011;64127;51.488;5.462;2023-07-29T05:22:13;3.00;;;2.80;;
75429;SDS011;64127;51.488;5.462;2023-07-29T05:24:46;2.60;;;2.40;;
75429;SDS011;64127;51.488;5.462;2023-07-29T05:27:18;3.63;;;2.90;;
75429;SDS011;64127;51.488;5.462;2023-07-29T05:29:50;3.20;;;2.90;;
75429;SDS011;64127;51.488;5.462;2023-07-29T05:32:22;2.90;;;2.70;;
75429;SDS011;64127;51.488;5.462;2023-07-29T05:34:54;2.70;;;2.50;;
75429;SDS011;64127;51.488;5.462;2023-07-29T05:37:26;3.07;;;2.77;;
75429;SDS011;64127;51.488;5.462;2023-07-29T05:39:58;2.93;;;2.70;;
75429;SDS011;64127;51.488;5.462;2023-07-29T05:42:30;2.90;;;2.60;;
75429;SDS011;64127;51.488;5.462;2023-07-29T05:45:02;3.30;;;2.63;;
75429;SDS011;64127;51.488;5.462;2023-07-29T05:47:34;2.83;;;2.63;;
75429;SDS011;64127;51.488;5.462;2023-07-29T05:50:06;3.10;;;2.80;;
75429;SDS011;64127;51.488;5.462;2023-07-29T05:52:39;3.93;;;3.10;;
75429;SDS011;64127;51.488;5.462;2023-07-29T05:55:11;3.20;;;2.60;;
75429;SDS011;64127;51.488;5.462;2023-07-29T05:57:43;3.20;;;2.70;;
75429;SDS011;64127;51.488;5.462;2023-07-29T06:00:15;2.90;;;2.70;;
75429;SDS011;64127;51.488;5.462;2023-07-29T06:02:47;3.00;;;2.80;;
75429;SDS011;64127;51.488;5.462;2023-07-29T06:05:19;2.63;;;2.43;;
75429;SDS011;64127;51.488;5.462;2023-07-29T06:08:09;2.77;;;2.50;;
75429;SDS011;64127;51.488;5.462;2023-07-29T06:10:43;4.33;;;2.90;;
75429;SDS011;64127;51.488;5.462;2023-07-29T06:13:15;2.63;;;2.43;;
75429;SDS011;64127;51.488;5.462;2023-07-29T06:15:54;2.67;;;2.47;;
75429;SDS011;64127;51.488;5.462;2023-07-29T06:18:26;2.77;;;2.43;;
75429;SDS011;64127;51.488;5.462;2023-07-29T06:20:58;3.57;;;2.83;;
75429;SDS011;64127;51.488;5.462;2023-07-29T06:23:38;2.53;;;2.33;;
75429;SDS011;64127;51.488;5.462;2023-07-29T06:26:09;3.67;;;2.33;;
75429;SDS011;64127;51.488;5.462;2023-07-29T06:28:42;2.90;;;2.67;;
75429;SDS011;64127;51.488;5.462;2023-07-29T06:31:17;3.07;;;2.87;;
75429;SDS011;64127;51.488;5.462;2023-07-29T06:33:49;3.60;;;3.30;;
75429;SDS011;64127;51.488;5.462;2023-07-29T06:36:21;3.60;;;2.80;;
75429;SDS011;64127;51.488;5.462;2023-07-29T06:38:54;3.03;;;2.73;;
75429;SDS011;64127;51.488;5.462;2023-07-29T06:41:26;3.20;;;2.87;;
75429;SDS011;64127;51.488;5.462;2023-07-29T06:43:58;3.90;;;2.90;;
75429;SDS011;64127;51.488;5.462;2023-07-29T06:46:30;2.93;;;2.73;;
75429;SDS011;64127;51.488;5.462;2023-07-29T06:49:02;2.70;;;2.50;;
75429;SDS011;64127;51.488;5.462;2023-07-29T06:51:34;2.67;;;2.47;;
75429;SDS011;64127;51.488;5.462;2023-07-29T06:54:06;3.33;;;2.70;;
75429;SDS011;64127;51.488;5.462;2023-07-29T06:56:39;2.90;;;2.50;;
75429;SDS011;64127;51.488;5.462;2023-07-29T06:59:11;2.60;;;2.40;;
75429;SDS011;64127;51.488;5.462;2023-07-29T07:02:01;4.70;;;2.63;;
75429;SDS011;64127;51.488;5.462;2023-07-29T07:04:33;3.87;;;2.50;;
75429;SDS011;64127;51.488;5.462;2023-07-29T07:07:05;3.20;;;2.50;;
75429;SDS011;64127;51.488;5.462;2023-07-29T07:09:37;2.40;;;2.20;;
75429;SDS011;64127;51.488;5.462;2023-07-29T07:12:09;2.53;;;2.33;;
75429;SDS011;64127;51.488;5.462;2023-07-29T07:14:41;3.33;;;2.50;;
75429;SDS011;64127;51.488;5.462;2023-07-29T07:17:13;4.50;;;2.50;;
75429;SDS011;64127;51.488;5.462;2023-07-29T07:19:45;2.83;;;2.60;;
75429;SDS011;64127;51.488;5.462;2023-07-29T07:22:17;2.83;;;2.10;;
75429;SDS011;64127;51.488;5.462;2023-07-29T07:24:49;2.73;;;2.40;;
75429;SDS011;64127;51.488;5.462;2023-07-29T07:27:22;2.60;;;2.17;;
75429;SDS011;64127;51.488;5.462;2023-07-29T07:29:54;3.37;;;2.50;;
75429;SDS011;64127;51.488;5.462;2023-07-29T07:32:26;4.03;;;2.50;;
75429;SDS011;64127;51.488;5.462;2023-07-29T07:34:58;2.50;;;2.30;;
75429;SDS011;64127;51.488;5.462;2023-07-29T07:37:30;3.00;;;2.40;;
75429;SDS011;64127;51.488;5.462;2023-07-29T07:40:02;2.60;;;2.40;;
75429;SDS011;64127;51.488;5.462;2023-07-29T07:42:35;2.73;;;2.50;;
75429;SDS011;64127;51.488;5.462;2023-07-29T07:45:07;3.73;;;2.27;;
75429;SDS011;64127;51.488;5.462;2023-07-29T07:47:39;2.27;;;2.10;;
75429;SDS011;64127;51.488;5.462;2023-07-29T07:50:11;3.20;;;2.40;;
75429;SDS011;64127;51.488;5.462;2023-07-29T07:52:45;2.30;;;2.10;;
75429;SDS011;64127;51.488;5.462;2023-07-29T07:55:17;3.40;;;2.27;;
75429;SDS011;64127;51.488;5.462;2023-07-29T07:57:49;2.30;;;2.10;;
75429;SDS011;64127;51.488;5.462;2023-07-29T08:00:21;3.70;;;2.20;;
75429;SDS011;64127;51.488;5.462;2023-07-29T08:02:53;1.83;;;1.73;;
75429;SDS011;64127;51.488;5.462;2023-07-29T08:05:25;2.20;;;2.00;;
75429;SDS011;64127;51.488;5.462;2023-07-29T08:07:57;1.90;;;1.80;;
75429;SDS011;64127;51.488;5.462;2023-07-29T08:10:29;1.77;;;1.67;;
75429;SDS011;64127;51.488;5.462;2023-07-29T08:13:01;1.70;;;1.60;;
75429;SDS011;64127;51.488;5.462;2023-07-29T08:15:33;2.00;;;1.77;;
75429;SDS011;64127;51.488;5.462;2023-07-29T08:18:05;3.67;;;1.70;;
75429;SDS011;64127;51.488;5.462;2023-07-29T08:20:38;1.80;;;1.70;;
75429;SDS011;64127;51.488;5.462;2023-07-29T08:23:10;1.73;;;1.60;;
75429;SDS011;64127;51.488;5.462;2023-07-29T08:25:42;3.37;;;1.73;;
75429;SDS011;64127;51.488;5.462;2023-07-29T08:28:14;2.60;;;1.90;;
75429;SDS011;64127;51.488;5.462;2023-07-29T08:30:46;2.00;;;1.83;;
75429;SDS011;64127;51.488;5.462;2023-07-29T08:33:18;2.50;;;1.70;;
75429;SDS011;64127;51.488;5.462;2023-07-29T08:35:50;2.27;;;1.93;;
75429;SDS011;64127;51.488;5.462;2023-07-29T08:38:22;1.77;;;1.60;;
75429;SDS011;64127;51.488;5.462;2023-07-29T08:40:59;2.50;;;1.70;;
75429;SDS011;64127;51.488;5.462;2023-07-29T08:43:50;2.77;;;1.70;;
75429;SDS011;64127;51.488;5.462;2023-07-29T08:46:28;1.80;;;1.47;;
75429;SDS011;64127;51.488;5.462;2023-07-29T08:49:00;2.03;;;1.70;;
75429;SDS011;64127;51.488;5.462;2023-07-29T08:51:33;1.80;;;1.70;;
75429;SDS011;64127;51.488;5.462;2023-07-29T08:54:07;3.47;;;1.83;;
75429;SDS011;64127;51.488;5.462;2023-07-29T08:56:42;2.53;;;1.80;;
75429;SDS011;64127;51.488;5.462;2023-07-29T08:59:15;1.50;;;1.40;;
75429;SDS011;64127;51.488;5.462;2023-07-29T09:01:50;1.80;;;1.70;;
75429;SDS011;64127;51.488;5.462;2023-07-29T09:04:26;1.83;;;1.67;;
75429;SDS011;64127;51.488;5.462;2023-07-29T09:07:00;2.27;;;1.60;;
75429;SDS011;64127;51.488;5.462;2023-07-29T09:09:33;2.63;;;1.80;;
75429;SDS011;64127;51.488;5.462;2023-07-29T09:12:05;2.00;;;1.80;;
75429;SDS011;64127;51.488;5.462;2023-07-29T09:14:38;2.93;;;1.80;;
75429;SDS011;64127;51.488;5.462;2023-07-29T09:17:10;1.90;;;1.70;;
75429;SDS011;64127;51.488;5.462;2023-07-29T09:19:42;1.70;;;1.60;;
75429;SDS011;64127;51.488;5.462;2023-07-29T09:22:22;1.73;;;1.63;;
75429;SDS011;64127;51.488;5.462;2023-07-29T09:24:56;2.33;;;1.70;;
75429;SDS011;64127;51.488;5.462;2023-07-29T09:27:29;3.30;;;1.40;;
75429;SDS011;64127;51.488;5.462;2023-07-29T09:30:03;1.70;;;1.60;;
75429;SDS011;64127;51.488;5.462;2023-07-29T09:32:36;1.90;;;1.70;;
75429;SDS011;64127;51.488;5.462;2023-07-29T09:35:11;2.10;;;1.70;;
75429;SDS011;64127;51.488;5.462;2023-07-29T09:37:44;1.40;;;1.30;;
75429;SDS011;64127;51.488;5.462;2023-07-29T09:40:16;1.80;;;1.70;;
75429;SDS011;64127;51.488;5.462;2023-07-29T09:42:50;2.60;;;1.80;;
75429;SDS011;64127;51.488;5.462;2023-07-29T09:45:26;2.03;;;1.83;;
75429;SDS011;64127;51.488;5.462;2023-07-29T09:47:58;1.90;;;1.70;;
75429;SDS011;64127;51.488;5.462;2023-07-29T09:50:31;1.80;;;1.67;;
75429;SDS011;64127;51.488;5.462;2023-07-29T09:53:03;2.13;;;1.83;;
75429;SDS011;64127;51.488;5.462;2023-07-29T09:55:38;1.50;;;1.40;;
75429;SDS011;64127;51.488;5.462;2023-07-29T09:58:10;3.37;;;2.00;;
75429;SDS011;64127;51.488;5.462;2023-07-29T10:00:42;2.73;;;1.70;;
75429;SDS011;64127;51.488;5.462;2023-07-29T10:03:14;2.07;;;1.80;;
75429;SDS011;64127;51.488;5.462;2023-07-29T10:05:47;2.07;;;1.83;;
75429;SDS011;64127;51.488;5.462;2023-07-29T10:08:19;2.23;;;1.80;;
75429;SDS011;64127;51.488;5.462;2023-07-29T10:10:55;2.20;;;1.73;;
75429;SDS011;64127;51.488;5.462;2023-07-29T10:13:31;1.93;;;1.77;;
75429;SDS011;64127;51.488;5.462;2023-07-29T10:16:05;2.07;;;1.87;;
75429;SDS011;64127;51.488;5.462;2023-07-29T10:18:38;1.80;;;1.70;;
75429;SDS011;64127;51.488;5.462;2023-07-29T10:21:11;1.67;;;1.57;;
75429;SDS011;64127;51.488;5.462;2023-07-29T10:23:47;3.03;;;1.93;;
75429;SDS011;64127;51.488;5.462;2023-07-29T10:26:23;1.67;;;1.50;;
75429;SDS011;64127;51.488;5.462;2023-07-29T10:28:57;1.80;;;1.70;;
75429;SDS011;64127;51.488;5.462;2023-07-29T10:31:36;2.57;;;1.63;;
75429;SDS011;64127;51.488;5.462;2023-07-29T10:34:14;1.67;;;1.53;;
75429;SDS011;64127;51.488;5.462;2023-07-29T10:36:46;2.17;;;1.90;;
75429;SDS011;64127;51.488;5.462;2023-07-29T10:39:20;2.00;;;1.80;;
75429;SDS011;64127;51.488;5.462;2023-07-29T10:47:25;1.77;;;1.67;;
75429;SDS011;64127;51.488;5.462;2023-07-29T10:50:01;2.00;;;1.70;;
75429;SDS011;64127;51.488;5.462;2023-07-29T10:55:22;1.80;;;1.70;;
75429;SDS011;64127;51.488;5.462;2023-07-29T11:00:45;2.40;;;1.70;;
75429;SDS011;64127;51.488;5.462;2023-07-29T11:03:18;2.20;;;1.90;;
75429;SDS011;64127;51.488;5.462;2023-07-29T11:05:51;1.90;;;1.80;;
75429;SDS011;64127;51.488;5.462;2023-07-29T11:08:31;1.70;;;1.60;;
75429;SDS011;64127;51.488;5.462;2023-07-29T11:11:06;2.23;;;2.00;;
75429;SDS011;64127;51.488;5.462;2023-07-29T11:13:43;2.40;;;1.90;;
75429;SDS011;64127;51.488;5.462;2023-07-29T11:16:16;2.00;;;1.80;;
75429;SDS011;64127;51.488;5.462;2023-07-29T11:18:48;1.70;;;1.60;;
75429;SDS011;64127;51.488;5.462;2023-07-29T11:21:20;2.00;;;1.80;;
75429;SDS011;64127;51.488;5.462;2023-07-29T11:23:53;2.30;;;1.80;;
75429;SDS011;64127;51.488;5.462;2023-07-29T11:26:25;1.90;;;1.80;;
75429;SDS011;64127;51.488;5.462;2023-07-29T11:28:58;1.77;;;1.67;;
75429;SDS011;64127;51.488;5.462;2023-07-29T11:31:38;1.90;;;1.80;;
75429;SDS011;64127;51.488;5.462;2023-07-29T11:34:11;1.97;;;1.87;;
75429;SDS011;64127;51.488;5.462;2023-07-29T11:36:48;2.07;;;1.87;;
75429;SDS011;64127;51.488;5.462;2023-07-29T11:39:20;1.90;;;1.80;;
75429;SDS011;64127;51.488;5.462;2023-07-29T11:41:52;1.60;;;1.50;;
75429;SDS011;64127;51.488;5.462;2023-07-29T11:44:27;2.10;;;1.70;;
75429;SDS011;64127;51.488;5.462;2023-07-29T11:46:59;2.17;;;1.90;;
75429;SDS011;64127;51.488;5.462;2023-07-29T11:49:32;2.07;;;1.90;;
75429;SDS011;64127;51.488;5.462;2023-07-29T11:52:10;1.77;;;1.67;;
75429;SDS011;64127;51.488;5.462;2023-07-29T11:54:43;1.90;;;1.73;;
75429;SDS011;64127;51.488;5.462;2023-07-29T11:57:16;2.03;;;1.93;;
75429;SDS011;64127;51.488;5.462;2023-07-29T11:59:49;1.90;;;1.73;;
75429;SDS011;64127;51.488;5.462;2023-07-29T12:02:21;2.73;;;1.77;;
75429;SDS011;64127;51.488;5.462;2023-07-29T12:04:57;1.83;;;1.73;;
75429;SDS011;64127;51.488;5.462;2023-07-29T12:07:29;1.77;;;1.67;;
75429;SDS011;64127;51.488;5.462;2023-07-29T12:10:03;1.97;;;1.87;;
75429;SDS011;64127;51.488;5.462;2023-07-29T12:12:54;2.67;;;1.90;;
75429;SDS011;64127;51.488;5.462;2023-07-29T12:15:27;3.50;;;2.13;;
75429;SDS011;64127;51.488;5.462;2023-07-29T12:18:01;6.07;;;2.93;;
75429;SDS011;64127;51.488;5.462;2023-07-29T12:20:33;5.87;;;2.90;;
75429;SDS011;64127;51.488;5.462;2023-07-29T12:23:06;5.00;;;2.90;;
75429;SDS011;64127;51.488;5.462;2023-07-29T12:25:39;3.70;;;2.60;;
75429;SDS011;64127;51.488;5.462;2023-07-29T12:28:11;2.77;;;2.30;;
75429;SDS011;64127;51.488;5.462;2023-07-29T12:30:43;2.37;;;2.17;;
75429;SDS011;64127;51.488;5.462;2023-07-29T12:33:36;2.73;;;2.13;;
75429;SDS011;64127;51.488;5.462;2023-07-29T12:36:13;2.60;;;2.40;;
75429;SDS011;64127;51.488;5.462;2023-07-29T12:38:45;2.70;;;2.50;;
75429;SDS011;64127;51.488;5.462;2023-07-29T12:41:17;3.37;;;2.37;;
75429;SDS011;64127;51.488;5.462;2023-07-29T12:43:49;2.70;;;2.33;;
75429;SDS011;64127;51.488;5.462;2023-07-29T12:46:21;8.40;;;2.53;;
75429;SDS011;64127;51.488;5.462;2023-07-29T12:49:00;2.50;;;1.90;;
75429;SDS011;64127;51.488;5.462;2023-07-29T12:51:32;2.27;;;1.57;;
75429;SDS011;64127;51.488;5.462;2023-07-29T12:54:04;2.07;;;1.43;;
75429;SDS011;64127;51.488;5.462;2023-07-29T12:56:36;1.93;;;1.30;;
75429;SDS011;64127;51.488;5.462;2023-07-29T12:59:09;3.87;;;1.43;;
75429;SDS011;64127;51.488;5.462;2023-07-29T13:01:41;1.60;;;1.47;;
75429;SDS011;64127;51.488;5.462;2023-07-29T13:04:13;2.00;;;1.20;;
75429;SDS011;64127;51.488;5.462;2023-07-29T13:06:45;1.93;;;1.43;;
75429;SDS011;64127;51.488;5.462;2023-07-29T13:09:17;1.67;;;1.20;;
75429;SDS011;64127;51.488;5.462;2023-07-29T13:11:49;1.43;;;1.13;;
75429;SDS011;64127;51.488;5.462;2023-07-29T13:14:21;1.40;;;1.30;;
75429;SDS011;64127;51.488;5.462;2023-07-29T13:16:53;1.40;;;1.30;;
75429;SDS011;64127;51.488;5.462;2023-07-29T13:19:25;1.60;;;1.50;;
75429;SDS011;64127;51.488;5.462;2023-07-29T13:21:57;1.30;;;1.20;;
75429;SDS011;64127;51.488;5.462;2023-07-29T13:24:29;1.87;;;1.60;;
75429;SDS011;64127;51.488;5.462;2023-07-29T13:27:01;2.00;;;1.60;;
75429;SDS011;64127;51.488;5.462;2023-07-29T13:29:33;1.73;;;1.63;;
75429;SDS011;64127;51.488;5.462;2023-07-29T13:32:05;2.07;;;1.87;;
75429;SDS011;64127;51.488;5.462;2023-07-29T13:34:38;2.07;;;1.87;;
75429;SDS011;64127;51.488;5.462;2023-07-29T13:37:11;2.67;;;1.90;;
75429;SDS011;64127;51.488;5.462;2023-07-29T13:39:43;2.00;;;1.90;;
75429;SDS011;64127;51.488;5.462;2023-07-29T13:42:15;2.10;;;1.90;;
75429;SDS011;64127;51.488;5.462;2023-07-29T13:44:47;2.23;;;2.03;;
75429;SDS011;64127;51.488;5.462;2023-07-29T13:47:19;1.70;;;1.60;;
75429;SDS011;64127;51.488;5.462;2023-07-29T13:49:51;1.90;;;1.80;;
75429;SDS011;64127;51.488;5.462;2023-07-29T13:52:23;1.80;;;1.70;;
75429;SDS011;64127;51.488;5.462;2023-07-29T13:54:55;3.90;;;1.97;;
75429;SDS011;64127;51.488;5.462;2023-07-29T13:57:27;1.97;;;1.80;;
75429;SDS011;64127;51.488;5.462;2023-07-29T13:59:59;2.67;;;2.00;;
75429;SDS011;64127;51.488;5.462;2023-07-29T14:02:31;2.80;;;2.03;;
75429;SDS011;64127;51.488;5.462;2023-07-29T14:05:03;2.00;;;1.90;;
75429;SDS011;64127;51.488;5.462;2023-07-29T14:07:36;2.50;;;2.00;;
75429;SDS011;64127;51.488;5.462;2023-07-29T14:10:08;2.20;;;2.00;;
75429;SDS011;64127;51.488;5.462;2023-07-29T14:12:40;2.03;;;1.83;;
75429;SDS011;64127;51.488;5.462;2023-07-29T14:15:12;2.63;;;2.10;;
75429;SDS011;64127;51.488;5.462;2023-07-29T14:17:44;2.50;;;1.90;;
75429;SDS011;64127;51.488;5.462;2023-07-29T14:20:16;2.20;;;2.00;;
75429;SDS011;64127;51.488;5.462;2023-07-29T14:22:52;1.70;;;1.60;;
75429;SDS011;64127;51.488;5.462;2023-07-29T14:25:24;2.90;;;2.00;;
75429;SDS011;64127;51.488;5.462;2023-07-29T14:27:56;1.87;;;1.70;;
75429;SDS011;64127;51.488;5.462;2023-07-29T14:30:28;1.73;;;1.60;;
75429;SDS011;64127;51.488;5.462;2023-07-29T14:33:00;2.80;;;1.67;;
75429;SDS011;64127;51.488;5.462;2023-07-29T14:35:32;1.63;;;1.53;;
75429;SDS011;64127;51.488;5.462;2023-07-29T14:38:05;2.23;;;1.50;;
75429;SDS011;64127;51.488;5.462;2023-07-29T14:40:37;1.67;;;1.57;;
75429;SDS011;64127;51.488;5.462;2023-07-29T14:43:09;2.17;;;1.70;;
75429;SDS011;64127;51.488;5.462;2023-07-29T14:45:41;1.60;;;1.50;;
75429;SDS011;64127;51.488;5.462;2023-07-29T14:48:13;1.60;;;1.47;;
75429;SDS011;64127;51.488;5.462;2023-07-29T14:50:45;1.70;;;1.60;;
75429;SDS011;64127;51.488;5.462;2023-07-29T14:53:17;1.73;;;1.50;;
75429;SDS011;64127;51.488;5.462;2023-07-29T14:55:49;1.80;;;1.70;;
75429;SDS011;64127;51.488;5.462;2023-07-29T14:58:21;1.77;;;1.60;;
75429;SDS011;64127;51.488;5.462;2023-07-29T15:00:54;1.57;;;1.47;;
75429;SDS011;64127;51.488;5.462;2023-07-29T15:03:26;1.97;;;1.60;;
75429;SDS011;64127;51.488;5.462;2023-07-29T15:05:58;2.60;;;1.70;;
75429;SDS011;64127;51.488;5.462;2023-07-29T15:08:32;2.50;;;1.80;;
75429;SDS011;64127;51.488;5.462;2023-07-29T15:11:04;1.80;;;1.70;;
75429;SDS011;64127;51.488;5.462;2023-07-29T15:13:36;1.70;;;1.60;;
75429;SDS011;64127;51.488;5.462;2023-07-29T15:16:08;1.70;;;1.60;;
75429;SDS011;64127;51.488;5.462;2023-07-29T15:18:40;1.83;;;1.60;;
75429;SDS011;64127;51.488;5.462;2023-07-29T15:21:12;1.70;;;1.60;;
75429;SDS011;64127;51.488;5.462;2023-07-29T15:23:44;1.80;;;1.70;;
75429;SDS011;64127;51.488;5.462;2023-07-29T15:26:17;1.83;;;1.67;;
75429;SDS011;64127;51.488;5.462;2023-07-29T15:28:49;2.07;;;1.70;;
75429;SDS011;64127;51.488;5.462;2023-07-29T15:31:21;1.80;;;1.70;;
75429;SDS011;64127;51.488;5.462;2023-07-29T15:33:53;2.63;;;1.70;;
75429;SDS011;64127;51.488;5.462;2023-07-29T15:36:25;2.10;;;1.90;;